createdAt,value
2023-05-23T00:00:19.010Z,14.76
2023-05-23T00:02:47.101Z,14.74
2023-05-23T00:05:15.604Z,14.69
2023-05-23T00:07:43.112Z,14.68
2023-05-23T00:10:11.642Z,14.70
2023-05-23T00:12:39.506Z,14.69
2023-05-23T00:15:08.210Z,14.84
2023-05-23T00:17:39.605Z,14.86
2023-05-23T00:20:12.174Z,14.97
2023-05-23T00:22:43.139Z,14.95
2023-05-23T00:25:11.536Z,15.14
2023-05-23T00:27:39.089Z,15.30
2023-05-23T00:30:07.579Z,15.10
2023-05-23T00:32:35.743Z,14.98
2023-05-23T00:35:03.832Z,14.89
2023-05-23T00:37:32.359Z,14.77
2023-05-23T00:40:00.163Z,14.93
2023-05-23T00:42:27.870Z,14.73
2023-05-23T00:44:55.507Z,14.58
2023-05-23T00:47:23.084Z,14.52
2023-05-23T00:49:50.691Z,14.32
2023-05-23T00:52:18.451Z,14.25
2023-05-23T00:54:46.115Z,14.27
2023-05-23T00:57:13.625Z,14.19
2023-05-23T00:59:41.398Z,14.17
2023-05-23T01:02:09.496Z,14.25
2023-05-23T01:04:37.716Z,13.96
2023-05-23T01:07:05.614Z,13.97
2023-05-23T01:12:51.116Z,13.94
2023-05-23T01:15:22.146Z,13.89
2023-05-23T01:18:08.963Z,13.89
2023-05-23T01:20:45.873Z,13.84
2023-05-23T01:24:03.409Z,13.73
2023-05-23T01:27:22.039Z,13.60
2023-05-23T01:29:58.005Z,13.61
2023-05-23T01:32:29.267Z,13.58
2023-05-23T01:35:01.376Z,13.42
2023-05-23T01:37:29.851Z,13.45
2023-05-23T01:39:57.471Z,13.61
2023-05-23T01:42:25.171Z,13.49
2023-05-23T01:44:53.226Z,13.66
2023-05-23T01:47:22.121Z,13.63
2023-05-23T01:49:50.652Z,13.56
2023-05-23T01:52:18.219Z,13.55
2023-05-23T01:54:49.176Z,13.58
2023-05-23T01:57:18.465Z,13.44
2023-05-23T01:59:46.158Z,13.36
2023-05-23T02:02:13.871Z,13.32
2023-05-23T02:04:41.363Z,13.23
2023-05-23T02:07:08.926Z,13.15
2023-05-23T02:09:38.988Z,12.98
2023-05-23T02:12:06.984Z,12.94
2023-05-23T02:14:34.546Z,12.96
2023-05-23T02:17:04.512Z,13.03
2023-05-23T02:19:32.062Z,12.86
2023-05-23T02:21:59.832Z,12.90
2023-05-23T02:24:27.309Z,12.89
2023-05-23T02:26:54.899Z,12.91
2023-05-23T02:29:22.450Z,12.99
2023-05-23T02:31:50.020Z,13.07
2023-05-23T02:34:17.765Z,13.20
2023-05-23T02:36:45.743Z,13.20
2023-05-23T02:39:13.725Z,13.08
2023-05-23T02:41:41.480Z,13.07
2023-05-23T02:44:09.095Z,13.12
2023-05-23T02:46:36.611Z,13.13
2023-05-23T02:49:05.080Z,13.11
2023-05-23T02:51:33.599Z,13.16
2023-05-23T02:54:01.151Z,13.25
2023-05-23T02:56:29.251Z,13.12
2023-05-23T02:58:56.907Z,13.10
2023-05-23T03:01:24.637Z,13.04
2023-05-23T03:03:52.195Z,13.07
2023-05-23T03:06:22.614Z,13.45
2023-05-23T03:08:50.709Z,13.36
2023-05-23T03:11:18.488Z,13.22
2023-05-23T03:13:46.025Z,13.21
2023-05-23T03:16:13.508Z,13.35
2023-05-23T03:18:42.205Z,13.34
2023-05-23T03:21:09.717Z,13.33
2023-05-23T03:23:37.509Z,13.27
2023-05-23T03:26:07.714Z,13.27
2023-05-23T03:28:35.917Z,13.36
2023-05-23T03:31:03.543Z,13.59
2023-05-23T03:33:31.345Z,13.51
2023-05-23T03:35:58.916Z,13.32
2023-05-23T03:38:27.997Z,13.34
2023-05-23T03:40:55.943Z,13.30
2023-05-23T03:43:23.562Z,13.14
2023-05-23T03:45:51.203Z,13.24
2023-05-23T03:48:18.989Z,13.35
2023-05-23T03:50:47.705Z,13.49
2023-05-23T03:53:15.419Z,13.34
2023-05-23T03:55:43.316Z,13.32
2023-05-23T03:58:12.450Z,13.41
2023-05-23T04:00:42.407Z,13.32
2023-05-23T04:03:11.707Z,13.52
2023-05-23T04:05:40.253Z,13.69
2023-05-23T04:08:08.278Z,13.60
2023-05-23T04:10:35.993Z,13.74
2023-05-23T04:13:03.537Z,13.85
2023-05-23T04:15:34.288Z,13.84
2023-05-23T04:18:09.381Z,13.78
2023-05-23T04:20:37.712Z,13.85
2023-05-23T04:23:05.847Z,13.76
2023-05-23T04:25:36.564Z,13.98
2023-05-23T04:28:19.660Z,14.00
2023-05-23T04:30:49.489Z,13.98
2023-05-23T04:33:20.167Z,14.07
2023-05-23T04:35:47.827Z,14.30
2023-05-23T04:38:15.309Z,14.38
2023-05-23T04:40:43.430Z,14.39
2023-05-23T04:43:34.073Z,14.68
2023-05-23T04:46:19.031Z,14.54
2023-05-23T04:48:49.268Z,14.34
2023-05-23T04:51:16.796Z,14.44
2023-05-23T04:53:52.935Z,14.50
2023-05-23T04:56:21.929Z,14.59
2023-05-23T04:58:50.193Z,14.59
2023-05-23T05:01:18.035Z,14.69
2023-05-23T05:03:45.799Z,14.68
2023-05-23T05:06:14.409Z,14.69
2023-05-23T05:08:43.092Z,14.65
2023-05-23T05:11:11.605Z,14.82
2023-05-23T05:13:39.458Z,14.99
2023-05-23T05:16:07.737Z,15.04
2023-05-23T05:18:36.594Z,14.97
2023-05-23T05:21:04.624Z,15.04
2023-05-23T05:23:33.411Z,15.15
2023-05-23T05:26:01.290Z,15.36
2023-05-23T05:28:28.899Z,15.32
2023-05-23T05:30:56.963Z,15.48
2023-05-23T05:33:25.102Z,15.63
2023-05-23T05:36:08.190Z,15.65
2023-05-23T05:38:36.527Z,15.72
2023-05-23T05:41:04.533Z,15.75
2023-05-23T05:43:37.568Z,15.87
2023-05-23T05:46:05.872Z,16.20
2023-05-23T05:48:34.280Z,16.61
2023-05-23T05:51:06.445Z,16.46
2023-05-23T05:53:35.085Z,16.64
2023-05-23T05:56:03.665Z,17.26
2023-05-23T05:58:32.898Z,17.46
2023-05-23T06:01:03.786Z,17.34
2023-05-23T06:03:32.188Z,17.28
2023-05-23T06:06:00.138Z,17.27
2023-05-23T06:08:27.855Z,17.69
2023-05-23T06:10:57.017Z,17.70
2023-05-23T06:13:26.123Z,17.48
2023-05-23T06:15:54.766Z,17.80
2023-05-23T06:18:23.254Z,17.63
2023-05-23T06:20:52.084Z,17.46
2023-05-23T06:23:21.726Z,17.61
2023-05-23T06:25:49.533Z,17.59
2023-05-23T06:28:17.112Z,17.62
2023-05-23T06:30:46.505Z,17.71
2023-05-23T06:33:14.120Z,17.90
2023-05-23T06:35:43.476Z,18.02
2023-05-23T06:38:11.138Z,18.14
2023-05-23T06:40:38.727Z,18.24
2023-05-23T06:43:06.437Z,18.24
2023-05-23T06:45:51.913Z,18.60
2023-05-23T06:48:19.641Z,18.48
2023-05-23T06:50:48.072Z,18.78
2023-05-23T06:53:18.877Z,19.06
2023-05-23T06:55:47.512Z,19.23
2023-05-23T06:58:18.035Z,19.38
2023-05-23T07:00:45.793Z,19.55
2023-05-23T07:03:24.009Z,19.57
2023-05-23T07:05:53.018Z,19.68
2023-05-23T07:08:23.005Z,20.28
2023-05-23T07:11:01.256Z,20.54
2023-05-23T07:13:32.960Z,20.68
2023-05-23T07:16:00.994Z,20.57
2023-05-23T07:18:28.648Z,21.02
2023-05-23T07:20:57.910Z,21.23
2023-05-23T07:23:26.437Z,21.30
2023-05-23T07:26:02.401Z,21.42
2023-05-23T07:28:42.726Z,21.59
2023-05-23T07:31:10.442Z,21.74
2023-05-23T07:33:39.267Z,21.74
2023-05-23T07:36:09.402Z,21.90
2023-05-23T07:38:36.903Z,22.58
2023-05-23T07:43:41.130Z,22.20
2023-05-23T07:46:08.934Z,22.52
2023-05-23T07:48:38.009Z,22.80
2023-05-23T07:51:06.121Z,22.87
2023-05-23T07:53:35.063Z,22.99
2023-05-23T07:56:04.343Z,22.91
2023-05-23T07:58:36.895Z,23.09
2023-05-23T08:01:04.434Z,23.43
2023-05-23T08:03:58.241Z,23.60
2023-05-23T08:07:00.821Z,23.77
2023-05-23T08:09:41.924Z,23.48
2023-05-23T08:12:12.858Z,23.16
2023-05-23T08:14:50.629Z,23.29
2023-05-23T08:17:32.801Z,23.54
2023-05-23T08:20:01.370Z,23.73
2023-05-23T08:22:30.638Z,23.96
2023-05-23T08:24:58.760Z,24.14
2023-05-23T08:27:28.181Z,24.69
2023-05-23T08:29:59.836Z,24.46
2023-05-23T08:32:27.604Z,24.29
2023-05-23T08:34:55.452Z,24.59
2023-05-23T08:37:43.142Z,24.77
2023-05-23T08:40:22.091Z,24.78
2023-05-23T08:42:58.893Z,24.95
2023-05-23T08:45:27.096Z,24.38
2023-05-23T08:47:57.129Z,24.64
2023-05-23T08:50:30.101Z,24.41
2023-05-23T08:52:59.954Z,24.17
2023-05-23T08:55:30.382Z,24.31
2023-05-23T08:58:00.644Z,24.63
2023-05-23T09:00:53.807Z,24.57
2023-05-23T09:03:22.540Z,25.22
2023-05-23T09:06:08.846Z,25.12
2023-05-23T09:08:37.473Z,25.23
2023-05-23T09:11:06.349Z,25.38
2023-05-23T09:13:37.677Z,24.93
2023-05-23T09:16:12.785Z,25.33
2023-05-23T09:18:45.997Z,25.59
2023-05-23T09:21:16.740Z,25.56
2023-05-23T09:23:53.350Z,25.76
2023-05-23T09:26:21.117Z,25.74
2023-05-23T09:28:49.279Z,25.84
2023-05-23T09:31:16.831Z,25.77
2023-05-23T09:33:50.152Z,25.84
2023-05-23T09:36:20.543Z,25.96
2023-05-23T09:38:49.103Z,26.05
2023-05-23T09:41:17.887Z,26.29
2023-05-23T09:43:55.244Z,25.84
2023-05-23T09:46:28.021Z,25.75
2023-05-23T09:48:56.255Z,25.75
2023-05-23T09:51:25.114Z,25.97
2023-05-23T09:53:53.338Z,25.91
2023-05-23T09:56:21.283Z,25.91
2023-05-23T09:58:50.942Z,26.56
2023-05-23T10:01:19.037Z,26.36
2023-05-23T10:03:58.011Z,26.69
2023-05-23T10:06:45.375Z,26.73
2023-05-23T10:09:20.297Z,26.76
2023-05-23T10:12:30.867Z,27.14
2023-05-23T10:15:04.667Z,26.72
2023-05-23T10:17:57.836Z,26.90
2023-05-23T10:20:32.055Z,27.52
2023-05-23T10:23:02.058Z,27.66
2023-05-23T10:25:31.662Z,27.88
2023-05-23T10:28:03.157Z,27.70
2023-05-23T10:30:32.275Z,27.90
2023-05-23T10:33:00.630Z,27.57
2023-05-23T10:35:57.092Z,27.49
2023-05-23T10:38:39.162Z,27.92
2023-05-23T10:41:39.695Z,27.98
2023-05-23T10:44:17.684Z,27.79
2023-05-23T10:47:02.684Z,27.67
2023-05-23T10:49:44.897Z,27.90
2023-05-23T10:52:16.613Z,27.44
2023-05-23T10:54:52.869Z,27.36
2023-05-23T10:57:27.977Z,27.21
2023-05-23T10:59:55.883Z,27.05
2023-05-23T11:02:29.067Z,26.93
2023-05-23T11:05:28.218Z,26.88
2023-05-23T11:08:16.298Z,27.01
2023-05-23T11:11:23.825Z,27.20
2023-05-23T11:13:57.637Z,26.97
2023-05-23T11:16:26.751Z,27.00
2023-05-23T11:19:21.156Z,26.80
2023-05-23T11:22:02.236Z,26.84
2023-05-23T11:24:54.498Z,26.59
2023-05-23T11:27:40.885Z,26.28
2023-05-23T11:30:10.074Z,26.06
2023-05-23T11:32:38.355Z,25.91
2023-05-23T11:35:11.365Z,25.99
2023-05-23T11:37:40.241Z,26.19
2023-05-23T11:40:32.279Z,26.37
2023-05-23T11:43:02.767Z,26.29
2023-05-23T11:45:32.132Z,25.80
2023-05-23T11:48:04.995Z,25.94
2023-05-23T11:50:32.732Z,25.96
2023-05-23T11:53:00.768Z,26.07
2023-05-23T11:55:28.334Z,26.17
2023-05-23T11:57:57.962Z,25.86
2023-05-23T12:00:25.854Z,25.70
2023-05-23T12:02:53.545Z,25.46
2023-05-23T12:05:21.057Z,25.25
2023-05-23T12:07:50.206Z,25.19
2023-05-23T12:10:21.823Z,25.50
2023-05-23T12:12:50.577Z,25.99
2023-05-23T12:15:18.368Z,26.14
2023-05-23T12:17:47.229Z,25.82
2023-05-23T12:20:15.270Z,26.09
2023-05-23T12:22:43.485Z,26.33
2023-05-23T12:25:11.677Z,26.42
2023-05-23T12:27:43.897Z,26.05
2023-05-23T12:30:16.585Z,26.09
2023-05-23T12:32:46.779Z,26.13
2023-05-23T12:35:17.388Z,25.95
2023-05-23T12:37:46.280Z,25.76
2023-05-23T12:40:18.392Z,25.40
2023-05-23T12:42:56.787Z,25.36
2023-05-23T12:45:36.900Z,25.22
2023-05-23T12:48:06.136Z,25.15
2023-05-23T12:50:34.458Z,25.23
2023-05-23T12:53:02.000Z,25.00
2023-05-23T12:55:29.651Z,25.14
2023-05-23T12:57:58.490Z,25.19
2023-05-23T13:00:26.178Z,25.64
2023-05-23T13:02:53.794Z,25.76
2023-05-23T13:05:22.551Z,25.87
2023-05-23T13:07:50.288Z,25.77
2023-05-23T13:10:17.957Z,25.68
2023-05-23T13:12:45.507Z,25.98
2023-05-23T13:15:13.108Z,26.25
2023-05-23T13:17:41.102Z,26.55
2023-05-23T13:20:10.973Z,26.33
2023-05-23T13:22:38.509Z,26.40
2023-05-23T13:25:08.262Z,26.62
2023-05-23T13:27:35.961Z,26.61
2023-05-23T13:30:03.674Z,26.61
2023-05-23T13:32:31.676Z,26.85
2023-05-23T13:34:59.168Z,27.13
2023-05-23T13:37:26.972Z,27.23
2023-05-23T13:39:54.551Z,26.71
2023-05-23T13:42:22.082Z,26.25
2023-05-23T13:44:49.565Z,26.19
2023-05-23T13:47:17.071Z,26.16
2023-05-23T13:49:45.047Z,25.93
2023-05-23T13:52:13.000Z,25.59
2023-05-23T13:54:41.706Z,25.62
2023-05-23T13:57:09.458Z,25.65
2023-05-23T13:59:37.073Z,25.47
2023-05-23T14:02:04.811Z,25.49
2023-05-23T14:04:33.770Z,25.41
2023-05-23T14:07:01.272Z,25.35
2023-05-23T14:09:28.817Z,25.44
2023-05-23T14:11:56.622Z,25.33
2023-05-23T14:14:24.830Z,25.09
2023-05-23T14:16:52.422Z,24.86
2023-05-23T14:19:20.665Z,24.36
2023-05-23T14:21:48.284Z,23.99
2023-05-23T14:24:16.101Z,23.90
2023-05-23T14:26:43.707Z,23.89
2023-05-23T14:29:11.330Z,23.60
2023-05-23T14:31:38.875Z,23.44
2023-05-23T14:34:06.517Z,23.44
2023-05-23T14:36:34.070Z,23.47
2023-05-23T14:39:01.659Z,23.46
2023-05-23T14:41:29.183Z,23.45
2023-05-23T14:43:56.769Z,23.46
2023-05-23T14:46:25.489Z,23.41
2023-05-23T14:48:53.001Z,23.50
2023-05-23T14:51:34.591Z,23.51
2023-05-23T14:54:09.362Z,23.49
2023-05-23T14:56:37.894Z,23.45
2023-05-23T14:59:11.494Z,23.49
2023-05-23T15:01:42.368Z,23.45
2023-05-23T15:04:10.409Z,23.46
2023-05-23T15:06:40.396Z,23.68
2023-05-23T15:09:09.769Z,23.77
2023-05-23T15:11:38.933Z,23.81
2023-05-23T15:14:07.353Z,24.02
2023-05-23T15:16:36.795Z,24.24
2023-05-23T15:19:06.055Z,24.54
2023-05-23T15:21:36.558Z,24.90
2023-05-23T15:24:04.510Z,24.46
2023-05-23T15:26:32.312Z,24.15
2023-05-23T15:28:59.857Z,23.97
2023-05-23T15:31:28.101Z,23.72
2023-05-23T15:33:55.831Z,23.49
2023-05-23T15:36:23.959Z,23.32
2023-05-23T15:38:51.523Z,23.28
2023-05-23T15:41:19.059Z,23.25
2023-05-23T15:43:47.663Z,23.04
2023-05-23T15:46:17.093Z,22.94
2023-05-23T15:48:44.665Z,23.17
2023-05-23T15:51:12.422Z,23.25
2023-05-23T15:53:59.032Z,22.98
2023-05-23T15:56:27.986Z,23.06
2023-05-23T15:58:56.323Z,23.08
2023-05-23T16:01:24.377Z,23.14
2023-05-23T16:03:53.522Z,23.39
2023-05-23T16:06:22.075Z,23.46
2023-05-23T16:08:49.605Z,23.83
2023-05-23T16:11:17.212Z,23.78
2023-05-23T16:13:44.795Z,23.83
2023-05-23T16:16:13.282Z,23.90
2023-05-23T16:18:40.951Z,24.22
2023-05-23T16:21:08.976Z,23.72
2023-05-23T16:23:36.899Z,23.58
2023-05-23T16:26:04.701Z,23.50
2023-05-23T16:28:32.440Z,23.31
2023-05-23T16:31:01.537Z,23.11
2023-05-23T16:33:30.074Z,22.97
2023-05-23T16:35:57.574Z,22.83
2023-05-23T16:38:25.496Z,22.76
2023-05-23T16:40:53.166Z,22.71
2023-05-23T16:43:20.863Z,22.58
2023-05-23T16:45:48.814Z,22.59
2023-05-23T16:48:17.350Z,22.57
2023-05-23T16:50:46.454Z,22.60
2023-05-23T16:53:15.523Z,22.56
2023-05-23T16:55:43.333Z,22.57
2023-05-23T16:58:12.289Z,22.53
2023-05-23T17:00:42.958Z,22.52
2023-05-23T17:03:10.737Z,22.47
2023-05-23T17:05:39.509Z,22.38
2023-05-23T17:08:07.485Z,22.27
2023-05-23T17:10:36.225Z,22.29
2023-05-23T17:13:03.794Z,22.22
2023-05-23T17:15:31.366Z,22.01
2023-05-23T17:17:59.056Z,21.88
2023-05-23T17:20:28.941Z,21.76
2023-05-23T17:22:57.654Z,21.64
2023-05-23T17:25:26.332Z,21.50
2023-05-23T17:27:54.160Z,21.38
2023-05-23T17:30:23.072Z,21.32
2023-05-23T17:32:52.488Z,21.20
2023-05-23T17:35:22.315Z,21.19
2023-05-23T17:37:52.672Z,21.18
2023-05-23T17:40:21.215Z,21.13
2023-05-23T17:45:55.722Z,20.94
2023-05-23T17:48:42.538Z,20.85
2023-05-23T17:51:19.249Z,20.68
2023-05-23T17:53:53.423Z,20.67
2023-05-23T17:56:25.348Z,20.62
2023-05-23T17:58:54.061Z,20.53
2023-05-23T18:01:26.413Z,20.51
2023-05-23T18:03:54.819Z,20.37
2023-05-23T18:06:22.419Z,20.41
2023-05-23T18:08:54.420Z,20.37
2023-05-23T18:11:25.881Z,20.23
2023-05-23T18:13:55.177Z,20.19
2023-05-23T18:16:24.311Z,20.20
2023-05-23T18:18:51.946Z,20.20
2023-05-23T18:21:20.612Z,20.14
2023-05-23T18:23:49.972Z,20.06
2023-05-23T18:26:23.905Z,20.02
2023-05-23T18:28:51.581Z,19.99
2023-05-23T18:31:22.954Z,20.39
2023-05-23T18:34:00.470Z,20.16
2023-05-23T18:36:28.878Z,19.85
2023-05-23T18:38:56.501Z,19.68
2023-05-23T18:41:26.835Z,19.56
2023-05-23T18:43:54.779Z,19.51
2023-05-23T18:46:25.627Z,19.59
2023-05-23T18:48:53.885Z,19.55
2023-05-23T18:51:28.241Z,19.51
2023-05-23T18:53:59.277Z,19.72
2023-05-23T18:56:28.332Z,20.00
2023-05-23T18:58:57.240Z,20.10
2023-05-23T19:01:26.101Z,19.94
2023-05-23T19:03:58.337Z,20.61
2023-05-23T19:06:53.094Z,20.13
2023-05-23T19:09:21.173Z,19.86
2023-05-23T19:11:52.620Z,19.64
2023-05-23T19:14:20.937Z,19.81
2023-05-23T19:16:52.123Z,19.50
2023-05-23T19:19:26.789Z,19.38
2023-05-23T19:21:59.525Z,19.33
2023-05-23T19:24:28.401Z,19.29
2023-05-23T19:26:57.517Z,19.33
2023-05-23T19:29:26.948Z,19.37
2023-05-23T19:32:02.897Z,19.42
2023-05-23T19:34:35.637Z,19.37
2023-05-23T19:37:05.765Z,19.38
2023-05-23T19:39:34.735Z,19.42
2023-05-23T19:42:02.608Z,19.42
2023-05-23T19:44:31.803Z,19.42
2023-05-23T19:47:00.157Z,19.37
2023-05-23T19:49:27.754Z,19.35
2023-05-23T19:51:55.371Z,19.35
2023-05-23T19:54:25.950Z,19.34
2023-05-23T19:56:54.696Z,19.23
2023-05-23T19:59:22.385Z,19.18
2023-05-23T20:01:50.190Z,19.14
2023-05-23T20:04:17.934Z,19.12
2023-05-23T20:06:45.501Z,19.10
2023-05-23T20:09:14.167Z,19.05
2023-05-23T20:11:43.050Z,19.00
2023-05-23T20:14:17.911Z,19.00
2023-05-23T20:16:49.213Z,18.95
2023-05-23T20:19:18.044Z,18.96
2023-05-23T20:21:47.338Z,18.96
2023-05-23T20:24:16.359Z,18.93
2023-05-23T20:26:44.264Z,18.92
2023-05-23T20:29:12.267Z,18.89
2023-05-23T20:31:47.413Z,18.83
2023-05-23T20:34:15.212Z,18.81
2023-05-23T20:36:42.920Z,18.77
2023-05-23T20:39:11.158Z,18.73
2023-05-23T20:41:42.265Z,18.76
2023-05-23T20:44:12.788Z,18.74
2023-05-23T20:46:44.792Z,18.81
2023-05-23T20:49:12.540Z,18.83
2023-05-23T20:51:40.148Z,18.78
2023-05-23T20:54:08.295Z,18.71
2023-05-23T20:56:37.378Z,18.68
2023-05-23T20:59:06.461Z,18.68
2023-05-23T21:01:34.169Z,18.64
2023-05-23T21:04:06.717Z,18.55
2023-05-23T21:06:34.391Z,18.50
2023-05-23T21:09:05.378Z,18.49
2023-05-23T21:11:34.277Z,18.37
2023-05-23T21:14:03.180Z,18.26
2023-05-23T21:16:33.262Z,18.27
2023-05-23T21:19:01.079Z,18.22
2023-05-23T21:21:29.912Z,18.12
2023-05-23T21:23:58.114Z,18.17
2023-05-23T21:26:25.802Z,18.19
2023-05-23T21:28:54.274Z,18.13
2023-05-23T21:31:33.048Z,18.08
2023-05-23T21:34:18.579Z,17.95
2023-05-23T21:36:50.845Z,17.96
2023-05-23T21:39:18.416Z,18.00
2023-05-23T21:41:46.083Z,18.03
2023-05-23T21:44:15.643Z,17.98
2023-05-23T21:46:43.166Z,17.97
2023-05-23T21:49:10.913Z,17.89
2023-05-23T21:51:38.518Z,17.91
2023-05-23T21:54:06.796Z,17.87
2023-05-23T21:56:34.299Z,17.84
2023-05-23T21:59:01.860Z,17.84
2023-05-23T22:01:29.376Z,17.91
2023-05-23T22:03:57.052Z,17.90
2023-05-23T22:06:24.622Z,17.82
2023-05-23T22:08:52.504Z,17.78
2023-05-23T22:11:20.174Z,17.81
2023-05-23T22:13:47.901Z,17.73
2023-05-23T22:16:15.530Z,17.75
2023-05-23T22:18:51.612Z,17.70
2023-05-23T22:21:19.747Z,17.63
2023-05-23T22:23:47.447Z,17.59
2023-05-23T22:26:17.451Z,17.64
2023-05-23T22:28:47.999Z,17.65
2023-05-23T22:31:16.775Z,17.63
2023-05-23T22:33:44.730Z,17.62
2023-05-23T22:36:12.795Z,17.66
2023-05-23T22:38:40.517Z,17.63
2023-05-23T22:41:08.140Z,17.55
2023-05-23T22:43:35.728Z,17.41
2023-05-23T22:46:03.414Z,17.22
2023-05-23T22:48:33.942Z,17.19
2023-05-23T22:51:03.049Z,17.20
2023-05-23T22:53:31.252Z,16.93
2023-05-23T22:55:59.172Z,17.32
2023-05-23T22:58:26.863Z,17.19
2023-05-23T23:00:54.436Z,16.63
2023-05-23T23:03:22.219Z,16.46
2023-05-23T23:05:49.835Z,16.41
2023-05-23T23:08:17.785Z,16.40
2023-05-23T23:10:45.523Z,16.29
2023-05-23T23:13:14.170Z,16.33
2023-05-23T23:15:43.248Z,16.40
2023-05-23T23:18:13.498Z,16.37
2023-05-23T23:20:41.759Z,16.36
2023-05-23T23:23:09.467Z,16.14
2023-05-23T23:25:37.851Z,16.02
2023-05-23T23:28:05.468Z,15.77
2023-05-23T23:30:32.987Z,15.71
2023-05-23T23:33:00.828Z,15.81
2023-05-23T23:35:28.376Z,15.82
2023-05-23T23:37:55.930Z,15.58
2023-05-23T23:40:23.459Z,15.59
2023-05-23T23:42:50.968Z,15.56
2023-05-23T23:45:18.846Z,15.54
2023-05-23T23:47:46.639Z,15.60
2023-05-23T23:50:14.215Z,15.56
2023-05-23T23:52:41.922Z,15.50
2023-05-23T23:55:09.956Z,15.66
2023-05-23T23:57:37.515Z,15.70
